^^
Anthem North Phoenix Station Historical Data
 
Daily Summary for July 21, 2019 Units:  English    Metric   Both
Daily Weekly Monthly Yearly Custom
  Current: High: Low: Average:
Temperature: 78.9 °F 88.6 °F 77.7 °F 83.3 °F
Dew Point: 45.7 °F 53.6 °F 42.4 °F 50.3 °F
Humidity: 31% 37% 27% 32%
Wind Speed: 0.9mph 2mph 0mph 0.1mph
Wind Gust: 1.2mph 2.3mph - -
WindNNE - - ENE
Pressure: 29.84 in 29.84 in 29.84 in -
Precipitation: 0 in      
Historical Graphs
 
 
Tabular Data for July 21, 2019
Time Temperature Dew Point Pressure Wind Wind Speed Wind Gust Humidity Rainfall Rate (Hourly)
00:04 88.6 °F 50.3 °F 29.84 in Calm     27% 0 in
00:09 88.3 °F 51.1 °F 29.84 in Calm   1.2 mph 28% 0 in
00:14 88.1 °F 49.9 °F 29.84 in NNE 0.4 mph 1.2 mph 27% 0 in
00:19 88.2 °F 50 °F 29.84 in NNE 0.7 mph 1.2 mph 27% 0 in
00:24 88.5 °F 51.2 °F 29.84 in Calm     28% 0 in
00:29 88.3 °F 51.1 °F 29.84 in Calm     28% 0 in
00:34 88 °F 51.8 °F 29.84 in Calm     29% 0 in
00:39 88.2 °F 51.9 °F 29.84 in Calm     29% 0 in
00:44 88 °F 51.8 °F 29.84 in Calm     29% 0 in
00:49 87.5 °F 52.2 °F 29.84 in Calm     30% 0 in
00:54 86.9 °F 52.6 °F 29.84 in Calm     31% 0 in
00:59 86.7 °F 52.4 °F 29.84 in Calm     31% 0 in
01:04 86.8 °F 51.6 °F 29.84 in Calm     30% 0 in
01:09 86.7 °F 52.4 °F 29.84 in Calm     31% 0 in
01:14 86.4 °F 52.2 °F 29.84 in Calm     31% 0 in
01:19 86.2 °F 52 °F 29.84 in Calm     31% 0 in
01:24 86 °F 52.7 °F 29.84 in Calm     32% 0 in
01:29 85.9 °F 52.6 °F 29.84 in Calm     32% 0 in
01:34 85.9 °F 52.6 °F 29.84 in Calm     32% 0 in
01:39 86 °F 53.5 °F 29.84 in Calm     33% 0 in
01:44 85.9 °F 53.5 °F 29.84 in Calm     33% 0 in
01:49 85.9 °F 53.5 °F 29.84 in Calm     33% 0 in
01:54 85.9 °F 53.5 °F 29.84 in Calm     33% 0 in
01:59 86.3 °F 53 °F 29.84 in Calm     32% 0 in
02:04 86.1 °F 53.6 °F 29.84 in Calm     33% 0 in
02:09 85.9 °F 52.6 °F 29.84 in Calm     32% 0 in
02:14 85 °F 51.8 °F 29.84 in North 0.7 mph 1.2 mph 32% 0 in
02:19 84.7 °F 52.4 °F 29.84 in NNE 0.9 mph   33% 0 in
02:24 85.2 °F 52.8 °F 29.84 in North 2 mph 2.3 mph 33% 0 in
02:29 85.6 °F 53.2 °F 29.84 in North 0.2 mph 1.2 mph 33% 0 in
02:34 85.8 °F 53.4 °F 29.84 in Calm     33% 0 in
02:39 85.8 °F 52.5 °F 29.84 in NNE 0.1 mph   32% 0 in
02:44 85.7 °F 52.4 °F 29.84 in Calm     32% 0 in
02:49 85.6 °F 52.4 °F 29.84 in Calm   2.3 mph 32% 0 in
02:54 85.1 °F 52.8 °F 29.84 in Calm     33% 0 in
02:59 84.3 °F 52.9 °F 29.84 in Calm     34% 0 in
03:04 83.9 °F 52.5 °F 29.84 in Calm     34% 0 in
03:09 83.1 °F 53.4 °F 29.84 in Calm     36% 0 in
03:14 83 °F 53.3 °F 29.84 in Calm     36% 0 in
03:19 82.8 °F 53.1 °F 29.84 in Calm     36% 0 in
03:24 82.6 °F 52.9 °F 29.84 in Calm     36% 0 in
03:29 82.2 °F 52.6 °F 29.84 in Calm     36% 0 in
03:34 81.8 °F 52.2 °F 29.84 in Calm     36% 0 in
03:39 81.2 °F 52.4 °F 29.84 in Calm     37% 0 in
03:44 81 °F 51.5 °F 29.84 in Calm     36% 0 in
03:49 81.1 °F 51.6 °F 29.84 in Calm     36% 0 in
03:54 80.9 °F 52.2 °F 29.84 in Calm     37% 0 in
03:59 80.4 °F 51.7 °F 29.84 in Calm     37% 0 in
04:04 79.7 °F 51.1 °F 29.84 in Calm     37% 0 in
04:09 79.4 °F 50.1 °F 29.84 in Calm     36% 0 in
04:14 79 °F 46.6 °F 29.84 in Calm     32% 0 in
04:19 79 °F 46.6 °F 29.84 in NNE 0.2 mph 1 mph 32% 0 in
04:24 79.3 °F 42.4 °F 29.84 in Calm     27% 0 in
04:29 79.1 °F 43.2 °F 29.84 in Calm     28% 0 in
04:34 79.4 °F 44.4 °F 29.84 in NNE 1 mph 2.3 mph 29% 0 in
04:39 79.8 °F 43.8 °F 29.84 in NNE 1 mph 1.2 mph 28% 0 in
04:44 79.6 °F 43.6 °F 29.84 in NNE 0.1 mph   28% 0 in
04:49 79.5 °F 44.5 °F 29.84 in Calm     29% 0 in
04:54 79.4 °F 44.4 °F 29.84 in NNW 0.3 mph 2 mph 29% 0 in
04:59 79.1 °F 45 °F 29.84 in NNE 0.5 mph 1.2 mph 30% 0 in
05:04 78.9 °F 45.7 °F 29.84 in Calm     31% 0 in
05:09 78.8 °F 46.4 °F 29.84 in Calm     32% 0 in
05:14 78.6 °F 47.1 °F 29.84 in Calm     33% 0 in
05:19 78.2 °F 45.9 °F 29.84 in Calm     32% 0 in
05:24 77.9 °F 46.5 °F 29.84 in Calm     33% 0 in
05:29 77.7 °F 46.3 °F 29.84 in Calm     33% 0 in
05:34 77.9 °F 46.5 °F 29.84 in Calm     33% 0 in
05:39 78.3 °F 47.6 °F 29.84 in NNE 0.7 mph 1.2 mph 34% 0 in
05:44 78.5 °F 48.6 °F 29.84 in Calm     35% 0 in
05:49 78.9 °F 45.7 °F 29.84 in NNE 0.9 mph 1.2 mph 31% 0 in
Anthen North Phoenix Weather
Compliments of Weather Underground - 1.5 mb